Time;durP1;ratioP1;P1;durP2;ratioP2;P2;SDS_P1;SDS_P2;PMS_P1;PMS_P2;Temp;Humidity;BMP_temperature;BMP_pressure;BME280_temperature;BME280_humidity;BME280_pressure;Samples;Min_cycle;Max_cycle;Signal;HPM_P1;HPM_P2
2023/07/08 00:00:06;;;;;;;;;;;22.80;45.90;;;;;;5050240;28;19975;-53
2023/07/08 00:02:33;;;;;;;;;;;22.80;45.90;;;;;;5027257;28;19933;-56
2023/07/08 00:05:00;;;;;;;;;;;22.80;45.90;;;;;;5045507;28;19927;-56
2023/07/08 00:07:26;;;;;;;;;;;22.80;45.90;;;;;;5031809;28;19932;-52
2023/07/08 00:09:53;;;;;;;;;;;22.80;46.00;;;;;;5049094;28;19947;-55
2023/07/08 00:12:20;;;;;;;;;;;22.80;46.00;;;;;;5026873;28;19925;-55
2023/07/08 00:14:48;;;;;;;;;;;22.80;46.00;;;;;;5047842;28;19929;-56
2023/07/08 00:17:15;;;;;;;;;;;22.80;46.00;;;;;;5031552;28;19920;-53
2023/07/08 00:19:42;;;;;;;;;;;22.80;46.00;;;;;;5030585;28;19921;-55
2023/07/08 00:22:09;;;;;;;;;;;22.70;45.90;;;;;;5021043;28;19921;-54
2023/07/08 00:24:36;;;;;;;;;;;22.80;46.00;;;;;;5047533;28;19931;-55
2023/07/08 00:27:03;;;;;;;;;;;22.70;46.00;;;;;;5053553;28;19920;-55
2023/07/08 00:29:29;;;;;;;;;;;22.80;46.00;;;;;;5035527;28;19979;-55
2023/07/08 00:31:58;;;;;;;;;;;22.80;46.00;;;;;;5035625;28;20028;-56
2023/07/08 00:34:24;;;;;;;;;;;22.80;46.10;;;;;;5035132;28;20303;-54
2023/07/08 00:36:51;;;;;;;;;;;22.70;46.00;;;;;;5053891;28;19925;-55
2023/07/08 00:39:18;;;;;;;;;;;22.70;46.00;;;;;;5052138;28;19920;-55
2023/07/08 00:41:45;;;;;;;;;;;22.70;46.00;;;;;;5034218;28;19936;-51
2023/07/08 00:44:12;;;;;;;;;;;22.70;46.00;;;;;;5034559;28;20379;-57
2023/07/08 00:46:42;;;;;;;;;;;22.70;46.00;;;;;;5035097;28;19928;-54
2023/07/08 00:49:26;;;;;;;;;;;22.70;46.00;;;;;;5035424;28;19925;-55
2023/07/08 00:51:54;;;;;;;;;;;22.70;46.00;;;;;;5053091;28;19986;-53
2023/07/08 00:54:22;;;;;;;;;;;22.70;46.00;;;;;;5033432;28;19925;-55
2023/07/08 00:56:49;;;;;;;;;;;22.70;46.10;;;;;;5034719;28;19921;-55
2023/07/08 00:59:18;;;;;;;;;;;22.70;46.10;;;;;;5034981;28;19924;-54
2023/07/08 01:01:45;;;;;;;;;;;22.70;46.10;;;;;;5035700;28;19921;-55
2023/07/08 01:04:12;;;;;;;;;;;22.70;46.10;;;;;;5048818;28;20359;-55
2023/07/08 01:06:40;;;;;;;;;;;22.70;46.10;;;;;;5034168;28;19921;-55
2023/07/08 01:09:09;;;;;;;;;;;22.70;46.10;;;;;;5048377;28;19932;-52
2023/07/08 01:11:36;;;;;;;;;;;22.70;46.10;;;;;;5034723;28;19925;-55
2023/07/08 01:14:03;;;;;;;;;;;22.70;46.10;;;;;;5032885;28;20386;-55
2023/07/08 01:16:33;;;;;;;;;;;22.70;46.10;;;;;;5036689;28;19931;-56
2023/07/08 01:19:00;;;;;;;;;;;22.70;46.10;;;;;;5026811;28;20019;-55
2023/07/08 01:21:31;;;;;;;;;;;22.70;46.10;;;;;;5034357;28;19932;-55
2023/07/08 01:23:59;;;;;;;;;;;22.70;46.10;;;;;;5032034;28;19921;-55
2023/07/08 01:26:25;;;;;;;;;;;22.70;46.10;;;;;;5035069;28;20046;-53
2023/07/08 01:28:52;;;;;;;;;;;22.70;46.10;;;;;;5052587;28;19944;-55
2023/07/08 01:31:19;;;;;;;;;;;22.70;46.10;;;;;;5032523;28;19978;-55
2023/07/08 01:33:46;;;;;;;;;;;22.60;46.10;;;;;;5049654;28;19936;-56
2023/07/08 01:36:13;;;;;;;;;;;22.60;46.10;;;;;;5033970;28;20320;-55
2023/07/08 01:38:40;;;;;;;;;;;22.60;46.10;;;;;;5052587;28;19921;-56
2023/07/08 01:41:11;;;;;;;;;;;22.70;46.20;;;;;;5032873;28;19925;-53
2023/07/08 01:43:38;;;;;;;;;;;22.70;46.20;;;;;;5032176;28;19925;-54
2023/07/08 01:46:04;;;;;;;;;;;22.70;46.20;;;;;;5034050;28;19951;-54
2023/07/08 01:48:32;;;;;;;;;;;22.70;46.20;;;;;;5030976;28;19921;-55
2023/07/08 01:51:00;;;;;;;;;;;22.60;46.20;;;;;;5050057;28;19924;-55
2023/07/08 01:53:29;;;;;;;;;;;22.60;46.20;;;;;;5051639;28;20337;-53
2023/07/08 01:55:55;;;;;;;;;;;22.70;46.30;;;;;;5034008;28;20306;-56
2023/07/08 01:58:24;;;;;;;;;;;22.70;46.30;;;;;;5033080;28;19932;-54
2023/07/08 02:00:51;;;;;;;;;;;22.70;46.30;;;;;;5032052;28;19932;-55
2023/07/08 02:03:18;;;;;;;;;;;22.70;46.40;;;;;;5051396;28;19929;-53
2023/07/08 02:05:45;;;;;;;;;;;22.70;46.40;;;;;;5033572;28;20559;-56
2023/07/08 02:08:11;;;;;;;;;;;22.60;46.30;;;;;;5033934;28;20318;-55
2023/07/08 02:10:39;;;;;;;;;;;22.70;46.40;;;;;;5033462;28;19924;-55
2023/07/08 02:13:06;;;;;;;;;;;22.60;46.40;;;;;;5032989;28;20010;-55
2023/07/08 02:15:34;;;;;;;;;;;22.60;46.40;;;;;;5023903;28;19921;-55
2023/07/08 02:18:01;;;;;;;;;;;22.70;46.50;;;;;;5034449;28;19921;-54
2023/07/08 02:20:27;;;;;;;;;;;22.60;46.50;;;;;;5031722;28;19925;-55
2023/07/08 02:22:54;;;;;;;;;;;22.60;46.50;;;;;;5050178;28;19928;-56
2023/07/08 02:25:21;;;;;;;;;;;22.60;46.60;;;;;;5033070;28;19928;-54
2023/07/08 02:27:48;;;;;;;;;;;22.60;46.50;;;;;;5051126;28;19971;-55
2023/07/08 02:30:15;;;;;;;;;;;22.70;46.70;;;;;;5051707;28;19978;-55
2023/07/08 02:32:48;;;;;;;;;;;22.60;46.60;;;;;;5023817;28;19963;-55
2023/07/08 02:35:15;;;;;;;;;;;22.60;46.60;;;;;;5033216;28;19920;-56
2023/07/08 02:37:42;;;;;;;;;;;22.60;46.70;;;;;;5033704;28;19921;-55
2023/07/08 02:40:09;;;;;;;;;;;22.60;46.70;;;;;;5032876;28;19924;-55
2023/07/08 02:42:36;;;;;;;;;;;22.60;46.70;;;;;;5032190;28;19932;-53
2023/07/08 02:45:03;;;;;;;;;;;22.60;46.70;;;;;;5031981;28;20035;-55
2023/07/08 02:47:30;;;;;;;;;;;22.60;46.70;;;;;;5032676;28;19955;-55
2023/07/08 02:49:58;;;;;;;;;;;22.60;46.70;;;;;;5044047;28;19921;-55
2023/07/08 02:52:25;;;;;;;;;;;22.60;46.80;;;;;;5031654;28;19978;-53
2023/07/08 02:54:52;;;;;;;;;;;22.60;46.80;;;;;;5033061;28;19971;-55
2023/07/08 02:57:18;;;;;;;;;;;22.60;46.80;;;;;;5033241;28;19929;-55
2023/07/08 02:59:45;;;;;;;;;;;22.60;46.80;;;;;;5030962;28;19925;-55
2023/07/08 03:02:12;;;;;;;;;;;22.60;46.80;;;;;;5025782;28;20048;-56
2023/07/08 03:04:40;;;;;;;;;;;22.60;46.80;;;;;;5029660;28;20417;-55
2023/07/08 03:07:11;;;;;;;;;;;22.60;47.40;;;;;;5039568;28;20150;-55
2023/07/08 03:09:38;;;;;;;;;;;22.60;46.90;;;;;;5033156;28;20397;-53
2023/07/08 03:12:05;;;;;;;;;;;22.60;46.90;;;;;;5033175;28;19964;-55
2023/07/08 03:14:32;;;;;;;;;;;22.60;46.90;;;;;;5049634;28;19929;-55
2023/07/08 03:17:01;;;;;;;;;;;22.60;46.90;;;;;;5032678;28;19931;-54
2023/07/08 03:19:27;;;;;;;;;;;22.60;46.90;;;;;;5031764;28;20266;-56
2023/07/08 03:21:54;;;;;;;;;;;22.60;47.00;;;;;;5045472;28;19982;-56
2023/07/08 03:24:23;;;;;;;;;;;22.60;46.90;;;;;;5031806;28;19928;-56
2023/07/08 03:26:53;;;;;;;;;;;22.60;47.00;;;;;;5033135;28;19929;-56
2023/07/08 03:29:20;;;;;;;;;;;22.60;47.00;;;;;;5032545;28;19964;-56
2023/07/08 03:31:47;;;;;;;;;;;22.60;47.00;;;;;;5042166;28;19928;-55
2023/07/08 03:34:14;;;;;;;;;;;22.60;47.00;;;;;;5030473;28;19929;-56
2023/07/08 03:36:48;;;;;;;;;;;22.60;46.90;;;;;;5031580;28;19936;-55
2023/07/08 03:39:15;;;;;;;;;;;22.60;46.90;;;;;;5032717;28;19925;-56
2023/07/08 03:41:43;;;;;;;;;;;22.60;47.00;;;;;;5049639;28;20011;-56
2023/07/08 03:44:10;;;;;;;;;;;22.60;47.00;;;;;;5031401;28;19970;-55
2023/07/08 03:46:36;;;;;;;;;;;22.60;46.90;;;;;;5048431;28;19920;-55
2023/07/08 03:49:03;;;;;;;;;;;22.60;47.00;;;;;;5049735;28;19925;-56
2023/07/08 03:51:31;;;;;;;;;;;22.60;47.00;;;;;;5030785;28;19931;-56
2023/07/08 03:53:57;;;;;;;;;;;22.60;47.00;;;;;;5047215;28;19964;-54
2023/07/08 03:56:24;;;;;;;;;;;22.60;47.00;;;;;;5031588;28;20283;-55
2023/07/08 03:58:52;;;;;;;;;;;22.60;47.00;;;;;;5030769;28;20394;-56
2023/07/08 04:01:20;;;;;;;;;;;22.60;47.00;;;;;;5048650;28;19925;-55
2023/07/08 04:03:47;;;;;;;;;;;22.60;47.00;;;;;;5031634;28;19920;-55
2023/07/08 04:06:13;;;;;;;;;;;22.60;47.00;;;;;;5031797;28;19925;-56
2023/07/08 04:08:40;;;;;;;;;;;22.60;47.00;;;;;;5028417;28;19990;-56
2023/07/08 04:11:07;;;;;;;;;;;22.60;47.10;;;;;;5030709;28;20262;-55
2023/07/08 04:13:33;;;;;;;;;;;22.60;47.10;;;;;;5031711;28;20378;-56
2023/07/08 04:16:02;;;;;;;;;;;22.50;47.00;;;;;;5031448;28;20363;-55
2023/07/08 04:18:29;;;;;;;;;;;22.60;47.10;;;;;;5049954;28;19921;-54
2023/07/08 04:20:55;;;;;;;;;;;22.60;47.10;;;;;;5031166;28;19924;-56
2023/07/08 04:23:22;;;;;;;;;;;22.60;47.10;;;;;;5032014;28;19921;-55
2023/07/08 04:25:49;;;;;;;;;;;22.60;47.10;;;;;;5030534;28;19925;-55
2023/07/08 04:28:16;;;;;;;;;;;22.60;47.00;;;;;;5043477;28;19925;-56
2023/07/08 04:30:43;;;;;;;;;;;22.50;47.00;;;;;;5049599;28;19932;-56
2023/07/08 04:33:13;;;;;;;;;;;22.60;47.00;;;;;;5046653;28;19970;-56
2023/07/08 04:35:39;;;;;;;;;;;22.50;47.00;;;;;;5047222;28;19960;-56
2023/07/08 04:38:09;;;;;;;;;;;22.60;47.10;;;;;;5048732;28;19921;-56
2023/07/08 04:40:36;;;;;;;;;;;22.50;47.00;;;;;;5031792;28;19921;-53
2023/07/08 04:43:03;;;;;;;;;;;22.60;47.10;;;;;;5026988;28;19920;-54
2023/07/08 04:45:30;;;;;;;;;;;22.60;47.10;;;;;;5031254;28;19933;-55
2023/07/08 04:47:57;;;;;;;;;;;22.50;47.00;;;;;;5040697;28;19925;-56
2023/07/08 04:50:25;;;;;;;;;;;22.60;47.10;;;;;;5031429;28;19921;-55
2023/07/08 04:52:52;;;;;;;;;;;22.50;47.00;;;;;;5031543;28;19943;-54
2023/07/08 04:55:19;;;;;;;;;;;22.50;47.00;;;;;;5031649;28;19970;-55
2023/07/08 04:57:46;;;;;;;;;;;22.60;47.10;;;;;;5025257;28;19920;-57
2023/07/08 05:00:14;;;;;;;;;;;22.50;47.00;;;;;;5029375;28;19921;-56
2023/07/08 05:02:40;;;;;;;;;;;22.50;47.00;;;;;;5030302;28;19921;-56
2023/07/08 05:05:07;;;;;;;;;;;22.50;47.10;;;;;;5049453;28;19921;-56
2023/07/08 05:07:35;;;;;;;;;;;22.50;47.10;;;;;;5026314;28;19929;-57
2023/07/08 05:10:02;;;;;;;;;;;22.50;47.10;;;;;;5049719;28;19966;-56
2023/07/08 05:12:29;;;;;;;;;;;22.50;47.20;;;;;;5049848;28;19952;-56
2023/07/08 05:14:56;;;;;;;;;;;22.50;47.20;;;;;;5044338;28;20164;-56
2023/07/08 05:17:24;;;;;;;;;;;22.60;47.30;;;;;;5035250;28;19928;-56
2023/07/08 05:19:51;;;;;;;;;;;22.50;47.20;;;;;;5051809;28;19975;-56
2023/07/08 05:22:24;;;;;;;;;;;22.50;47.20;;;;;;5035582;28;19921;-56
2023/07/08 05:24:55;;;;;;;;;;;22.50;47.20;;;;;;5035043;28;20023;-55
2023/07/08 05:27:21;;;;;;;;;;;22.50;47.30;;;;;;5052656;28;19928;-55
2023/07/08 05:29:48;;;;;;;;;;;22.50;47.30;;;;;;5034613;28;19921;-55
2023/07/08 05:32:15;;;;;;;;;;;22.50;47.20;;;;;;5023973;28;19932;-56
2023/07/08 05:34:42;;;;;;;;;;;22.50;47.20;;;;;;5052370;28;19932;-56
2023/07/08 05:37:08;;;;;;;;;;;22.50;47.20;;;;;;5031286;28;19959;-56
2023/07/08 05:39:35;;;;;;;;;;;22.50;47.20;;;;;;5031775;28;19927;-55
2023/07/08 05:42:03;;;;;;;;;;;22.50;47.20;;;;;;5048979;28;19921;-56
2023/07/08 05:44:30;;;;;;;;;;;22.50;47.20;;;;;;5051892;28;19932;-56
2023/07/08 05:46:57;;;;;;;;;;;22.50;47.20;;;;;;5033752;28;19974;-56
2023/07/08 05:49:24;;;;;;;;;;;22.50;47.20;;;;;;5034396;28;20015;-54
2023/07/08 05:51:51;;;;;;;;;;;22.50;47.20;;;;;;5033362;28;20939;-57
2023/07/08 05:54:18;;;;;;;;;;;22.50;47.20;;;;;;5034404;28;19927;-54
2023/07/08 05:56:45;;;;;;;;;;;22.50;47.20;;;;;;5048779;28;20035;-52
2023/07/08 05:59:13;;;;;;;;;;;22.50;47.30;;;;;;5046096;28;19920;-56
2023/07/08 06:01:39;;;;;;;;;;;22.50;47.30;;;;;;5033311;28;19978;-55
2023/07/08 06:04:06;;;;;;;;;;;22.50;47.30;;;;;;5048950;28;19921;-56
2023/07/08 06:06:33;;;;;;;;;;;22.50;47.30;;;;;;5032748;28;19971;-56
2023/07/08 06:09:00;;;;;;;;;;;22.50;47.30;;;;;;5052117;28;19921;-55
2023/07/08 06:11:27;;;;;;;;;;;22.50;47.40;;;;;;5033832;28;20012;-55
2023/07/08 06:13:54;;;;;;;;;;;22.50;47.40;;;;;;5033504;28;19927;-56
2023/07/08 06:16:22;;;;;;;;;;;22.50;47.40;;;;;;5033281;28;19928;-57
2023/07/08 06:18:49;;;;;;;;;;;22.50;47.50;;;;;;5032375;28;19924;-56
2023/07/08 06:21:16;;;;;;;;;;;22.50;47.50;;;;;;5033273;28;19925;-56
2023/07/08 06:23:42;;;;;;;;;;;22.50;47.50;;;;;;5033043;28;19921;-55
2023/07/08 06:26:09;;;;;;;;;;;22.50;47.50;;;;;;5033364;28;19925;-56
2023/07/08 06:28:36;;;;;;;;;;;22.50;47.50;;;;;;5032378;28;19974;-56
2023/07/08 06:31:03;;;;;;;;;;;22.50;47.50;;;;;;5033912;28;19921;-57
2023/07/08 06:33:31;;;;;;;;;;;22.50;47.60;;;;;;5029240;28;19921;-55
2023/07/08 06:35:57;;;;;;;;;;;22.50;47.60;;;;;;5025296;28;19970;-56
2023/07/08 06:38:24;;;;;;;;;;;22.50;47.60;;;;;;5030013;28;19928;-56
2023/07/08 06:40:51;;;;;;;;;;;22.50;47.70;;;;;;5036585;28;20037;-57
2023/07/08 06:43:18;;;;;;;;;;;22.50;47.70;;;;;;5034180;28;19928;-55
2023/07/08 06:45:44;;;;;;;;;;;22.50;47.70;;;;;;5032923;28;19936;-55
2023/07/08 06:48:11;;;;;;;;;;;22.50;47.70;;;;;;5051569;28;19921;-54
2023/07/08 06:50:42;;;;;;;;;;;22.50;47.70;;;;;;5037929;28;19973;-55
2023/07/08 06:53:09;;;;;;;;;;;22.50;47.80;;;;;;5045320;28;19964;-57
2023/07/08 06:55:36;;;;;;;;;;;22.50;47.80;;;;;;5035170;28;19963;-56
2023/07/08 06:58:02;;;;;;;;;;;22.50;47.70;;;;;;5033799;28;19925;-55
2023/07/08 07:00:29;;;;;;;;;;;22.50;47.70;;;;;;5032614;28;19966;-56
2023/07/08 07:02:56;;;;;;;;;;;22.50;47.70;;;;;;5047751;28;19947;-53
2023/07/08 07:05:23;;;;;;;;;;;22.50;47.70;;;;;;5033888;28;19927;-55
2023/07/08 07:07:52;;;;;;;;;;;22.50;47.70;;;;;;5034409;28;20007;-54
2023/07/08 07:10:19;;;;;;;;;;;22.50;47.70;;;;;;5034463;28;20373;-55
2023/07/08 07:12:46;;;;;;;;;;;22.50;47.70;;;;;;5051605;28;19983;-54
2023/07/08 07:15:16;;;;;;;;;;;22.50;47.80;;;;;;5034780;28;19929;-54
2023/07/08 07:17:42;;;;;;;;;;;22.50;47.80;;;;;;5037015;28;19960;-56
2023/07/08 07:20:09;;;;;;;;;;;22.50;47.90;;;;;;5035434;28;19920;-55
2023/07/08 07:22:36;;;;;;;;;;;22.50;47.90;;;;;;5053304;28;19995;-56
2023/07/08 07:25:05;;;;;;;;;;;22.60;48.00;;;;;;5050305;28;19932;-54
2023/07/08 07:27:31;;;;;;;;;;;22.60;48.00;;;;;;5048936;28;19971;-57
2023/07/08 07:29:59;;;;;;;;;;;22.50;48.50;;;;;;5031137;28;19920;-55
2023/07/08 07:32:26;;;;;;;;;;;22.50;48.00;;;;;;5049809;28;19975;-53
2023/07/08 07:34:53;;;;;;;;;;;22.60;48.00;;;;;;5035373;28;19978;-56
2023/07/08 07:37:21;;;;;;;;;;;22.60;48.00;;;;;;5035806;28;19920;-54
2023/07/08 07:39:48;;;;;;;;;;;22.60;48.10;;;;;;5032344;28;19932;-57
2023/07/08 07:42:16;;;;;;;;;;;22.60;48.00;;;;;;5038244;28;20023;-56
2023/07/08 07:44:43;;;;;;;;;;;22.60;48.10;;;;;;5051899;28;19920;-55
2023/07/08 07:47:10;;;;;;;;;;;22.60;48.00;;;;;;5028526;28;19986;-55
2023/07/08 07:49:36;;;;;;;;;;;22.60;48.00;;;;;;5028980;28;19929;-55
2023/07/08 07:52:03;;;;;;;;;;;22.60;48.00;;;;;;5036647;28;19936;-55
2023/07/08 07:54:30;;;;;;;;;;;22.60;48.10;;;;;;5032007;28;19925;-56
2023/07/08 07:56:57;;;;;;;;;;;22.60;48.00;;;;;;5030364;28;19928;-56
2023/07/08 07:59:25;;;;;;;;;;;22.60;48.00;;;;;;5047979;28;20452;-56
2023/07/08 08:01:52;;;;;;;;;;;22.60;48.10;;;;;;5049605;28;19932;-55
2023/07/08 08:04:19;;;;;;;;;;;22.60;48.10;;;;;;5043052;28;19921;-56
2023/07/08 08:06:47;;;;;;;;;;;22.60;48.10;;;;;;5036435;28;19971;-56
2023/07/08 08:09:14;;;;;;;;;;;22.60;48.10;;;;;;5037116;28;19929;-57
2023/07/08 08:11:40;;;;;;;;;;;22.60;48.10;;;;;;5028568;28;19925;-56
2023/07/08 08:14:07;;;;;;;;;;;22.70;48.30;;;;;;5021657;28;19921;-56
2023/07/08 08:16:35;;;;;;;;;;;22.70;48.20;;;;;;5048331;28;20225;-56
2023/07/08 08:19:02;;;;;;;;;;;22.60;48.10;;;;;;5030165;28;20411;-56
2023/07/08 08:21:29;;;;;;;;;;;22.70;48.30;;;;;;5031921;28;19920;-55
2023/07/08 08:23:58;;;;;;;;;;;22.70;48.30;;;;;;5031300;28;19970;-56
2023/07/08 08:26:25;;;;;;;;;;;22.70;48.60;;;;;;5033751;28;19921;-56
2023/07/08 08:28:54;;;;;;;;;;;22.70;48.70;;;;;;5037371;28;20661;-55
2023/07/08 08:31:21;;;;;;;;;;;22.70;48.80;;;;;;5030003;28;19947;-53
2023/07/08 08:33:49;;;;;;;;;;;22.70;48.80;;;;;;5028827;28;19928;-54
2023/07/08 08:36:15;;;;;;;;;;;22.70;48.90;;;;;;5032471;28;19975;-54
2023/07/08 08:38:42;;;;;;;;;;;22.70;48.90;;;;;;5034969;28;20183;-54
2023/07/08 08:41:11;;;;;;;;;;;22.70;49.00;;;;;;5052003;28;19979;-56
2023/07/08 08:43:38;;;;;;;;;;;22.80;49.10;;;;;;5028221;28;19928;-56
2023/07/08 08:46:06;;;;;;;;;;;22.80;49.40;;;;;;5032602;28;19956;-55
2023/07/08 08:48:33;;;;;;;;;;;22.80;49.40;;;;;;5027079;28;19996;-56
2023/07/08 08:51:03;;;;;;;;;;;22.80;49.30;;;;;;5053819;28;19921;-56
2023/07/08 08:53:29;;;;;;;;;;;22.80;49.10;;;;;;5032110;28;19974;-53
2023/07/08 08:55:57;;;;;;;;;;;22.90;49.30;;;;;;5036618;28;19929;-56
2023/07/08 08:58:27;;;;;;;;;;;22.80;49.10;;;;;;5066361;28;19921;-55
2023/07/08 09:00:54;;;;;;;;;;;22.90;49.20;;;;;;5035995;28;19921;-54
2023/07/08 09:03:25;;;;;;;;;;;22.90;49.10;;;;;;5041312;28;19920;-55
2023/07/08 09:05:51;;;;;;;;;;;22.90;49.10;;;;;;5038047;28;19941;-53
2023/07/08 09:08:21;;;;;;;;;;;22.90;49.00;;;;;;5039591;28;19924;-55
2023/07/08 09:10:50;;;;;;;;;;;22.90;49.00;;;;;;5039336;28;19928;-54
2023/07/08 09:13:19;;;;;;;;;;;22.90;48.90;;;;;;5039951;28;19920;-57
2023/07/08 09:15:45;;;;;;;;;;;22.90;48.80;;;;;;5040039;28;19964;-56
2023/07/08 09:18:15;;;;;;;;;;;22.90;48.80;;;;;;5059837;28;19992;-57
2023/07/08 09:20:43;;;;;;;;;;;22.90;48.70;;;;;;5041034;28;20293;-56
2023/07/08 09:23:12;;;;;;;;;;;22.90;48.60;;;;;;5037900;28;19924;-56
2023/07/08 09:25:40;;;;;;;;;;;22.90;48.60;;;;;;5052158;28;19920;-56
2023/07/08 09:28:08;;;;;;;;;;;22.90;48.70;;;;;;5052358;28;19932;-55
2023/07/08 09:30:34;;;;;;;;;;;22.90;48.60;;;;;;5044634;28;19929;-57
2023/07/08 09:33:03;;;;;;;;;;;23.00;48.60;;;;;;5043889;28;19920;-54
2023/07/08 09:35:30;;;;;;;;;;;23.00;48.60;;;;;;5043040;28;19974;-56
2023/07/08 09:37:58;;;;;;;;;;;23.00;48.60;;;;;;5056545;28;19955;-56
2023/07/08 09:40:29;;;;;;;;;;;23.00;48.70;;;;;;5041047;28;19925;-55
2023/07/08 09:42:59;;;;;;;;;;;23.10;48.70;;;;;;5055747;28;19921;-56
2023/07/08 09:45:26;;;;;;;;;;;23.00;48.60;;;;;;5034568;28;20425;-55
2023/07/08 09:47:53;;;;;;;;;;;23.00;48.60;;;;;;5038199;28;19927;-56
2023/07/08 09:50:20;;;;;;;;;;;23.10;48.60;;;;;;5034655;28;19927;-55
2023/07/08 09:52:47;;;;;;;;;;;23.10;48.50;;;;;;5033674;28;19921;-56
2023/07/08 09:55:14;;;;;;;;;;;23.10;48.40;;;;;;5038601;28;19970;-56
2023/07/08 09:57:41;;;;;;;;;;;23.10;48.40;;;;;;5035817;28;19974;-55
2023/07/08 10:00:12;;;;;;;;;;;23.10;48.60;;;;;;5037035;28;19921;-55
2023/07/08 10:02:39;;;;;;;;;;;23.10;48.80;;;;;;5035361;28;19978;-56
2023/07/08 10:05:11;;;;;;;;;;;23.20;48.70;;;;;;5039251;28;19975;-53
2023/07/08 10:07:37;;;;;;;;;;;23.20;48.70;;;;;;5053544;28;19928;-56
2023/07/08 10:10:05;;;;;;;;;;;23.20;48.60;;;;;;5045345;28;19924;-56
2023/07/08 10:12:32;;;;;;;;;;;23.20;48.70;;;;;;5045585;28;20323;-56
2023/07/08 10:14:59;;;;;;;;;;;23.20;48.80;;;;;;5039798;28;19940;-55
2023/07/08 10:17:29;;;;;;;;;;;23.20;48.70;;;;;;5030222;28;20371;-55
2023/07/08 10:19:56;;;;;;;;;;;23.20;48.70;;;;;;5024936;28;19932;-56
2023/07/08 10:22:34;;;;;;;;;;;23.20;48.70;;;;;;5051842;28;19932;-56
2023/07/08 10:25:08;;;;;;;;;;;23.20;48.70;;;;;;5028575;28;20012;-56
2023/07/08 10:27:35;;;;;;;;;;;23.20;48.90;;;;;;5048898;28;19932;-55
2023/07/08 10:30:03;;;;;;;;;;;23.30;49.00;;;;;;5040963;28;19970;-53
2023/07/08 10:32:36;;;;;;;;;;;23.30;49.00;;;;;;5034944;28;19960;-54
2023/07/08 10:35:04;;;;;;;;;;;23.30;49.10;;;;;;5034854;28;19921;-55
2023/07/08 10:37:33;;;;;;;;;;;23.30;49.00;;;;;;5041537;28;19978;-55
2023/07/08 10:40:07;;;;;;;;;;;23.30;48.90;;;;;;5064873;28;19989;-52
2023/07/08 10:42:39;;;;;;;;;;;23.30;48.80;;;;;;5035194;28;19928;-53
2023/07/08 10:45:09;;;;;;;;;;;23.30;48.70;;;;;;5037330;28;19986;-54
2023/07/08 10:47:40;;;;;;;;;;;23.40;48.80;;;;;;5033155;28;19928;-54
2023/07/08 10:50:12;;;;;;;;;;;23.40;49.00;;;;;;5028848;28;19947;-56
2023/07/08 10:52:45;;;;;;;;;;;23.40;48.90;;;;;;5037171;28;19981;-56
2023/07/08 10:55:15;;;;;;;;;;;23.40;48.90;;;;;;5053393;28;19973;-56
2023/07/08 10:57:47;;;;;;;;;;;23.40;49.00;;;;;;5030313;28;19928;-56
2023/07/08 11:00:17;;;;;;;;;;;23.40;49.00;;;;;;5036854;28;19920;-56
2023/07/08 11:02:55;;;;;;;;;;;23.40;49.00;;;;;;5052046;28;20036;-56
2023/07/08 11:05:24;;;;;;;;;;;23.40;49.00;;;;;;5054634;28;19920;-55
2023/07/08 11:07:52;;;;;;;;;;;23.40;49.10;;;;;;5053423;28;20240;-56
2023/07/08 11:10:21;;;;;;;;;;;23.40;49.20;;;;;;5050951;28;20287;-56
2023/07/08 11:12:48;;;;;;;;;;;23.40;49.20;;;;;;5039387;28;19934;-56
2023/07/08 11:15:16;;;;;;;;;;;23.40;49.20;;;;;;5040843;28;19971;-55
2023/07/08 11:17:44;;;;;;;;;;;23.40;49.30;;;;;;5034512;28;19933;-53
2023/07/08 11:20:14;;;;;;;;;;;23.40;49.30;;;;;;5038464;28;20375;-53
2023/07/08 11:22:43;;;;;;;;;;;23.40;49.30;;;;;;5032511;28;19920;-55
2023/07/08 11:25:14;;;;;;;;;;;23.40;49.20;;;;;;5042575;28;19991;-56
2023/07/08 11:27:41;;;;;;;;;;;23.50;49.20;;;;;;5033390;28;20356;-56
2023/07/08 11:30:16;;;;;;;;;;;23.40;48.80;;;;;;5036701;28;20134;-55
2023/07/08 11:32:43;;;;;;;;;;;23.50;48.80;;;;;;5039804;28;19987;-56
2023/07/08 11:35:17;;;;;;;;;;;23.50;48.70;;;;;;5034669;28;19928;-55
2023/07/08 11:37:44;;;;;;;;;;;23.50;48.70;;;;;;5049641;28;19921;-56
2023/07/08 11:40:18;;;;;;;;;;;23.40;48.60;;;;;;5038149;28;19981;-56
2023/07/08 11:42:46;;;;;;;;;;;23.50;48.60;;;;;;5044572;28;19950;-55
2023/07/08 11:45:24;;;;;;;;;;;23.50;48.30;;;;;;5057606;28;19960;-56
2023/07/08 11:47:51;;;;;;;;;;;23.50;47.90;;;;;;5031398;28;19928;-56
2023/07/08 11:50:21;;;;;;;;;;;23.50;48.00;;;;;;5040276;28;19982;-57
2023/07/08 11:52:51;;;;;;;;;;;23.50;48.40;;;;;;5033910;28;19920;-56
2023/07/08 11:55:21;;;;;;;;;;;23.50;47.70;;;;;;5054906;28;19939;-55
2023/07/08 11:57:48;;;;;;;;;;;23.50;47.40;;;;;;5032113;28;20291;-56
2023/07/08 12:00:17;;;;;;;;;;;23.50;47.00;;;;;;5038593;28;19931;-55
2023/07/08 12:02:48;;;;;;;;;;;23.50;47.00;;;;;;5051414;28;20307;-56
2023/07/08 12:05:15;;;;;;;;;;;23.60;47.00;;;;;;5045878;28;20226;-56
2023/07/08 12:07:43;;;;;;;;;;;23.60;47.20;;;;;;5049579;28;19943;-57
2023/07/08 12:10:11;;;;;;;;;;;23.60;46.90;;;;;;5030286;28;19931;-56
2023/07/08 12:12:38;;;;;;;;;;;23.60;46.80;;;;;;5033512;28;19979;-54
2023/07/08 12:15:08;;;;;;;;;;;23.60;46.70;;;;;;5037053;28;19924;-54
2023/07/08 12:17:35;;;;;;;;;;;23.60;46.60;;;;;;5040979;28;19924;-56
2023/07/08 12:20:04;;;;;;;;;;;23.60;46.70;;;;;;5035772;28;19975;-57
2023/07/08 12:22:31;;;;;;;;;;;23.60;46.80;;;;;;5050417;28;19921;-55
2023/07/08 12:25:04;;;;;;;;;;;23.60;47.00;;;;;;5038040;28;19982;-52
2023/07/08 12:27:31;;;;;;;;;;;23.60;47.00;;;;;;5050402;28;19996;-54
2023/07/08 12:29:59;;;;;;;;;;;23.60;46.80;;;;;;5030414;28;20359;-54
2023/07/08 12:32:28;;;;;;;;;;;23.60;46.60;;;;;;5050502;28;20301;-55
2023/07/08 12:34:55;;;;;;;;;;;23.60;46.30;;;;;;5040329;28;20370;-55
2023/07/08 12:40:03;;;;;;;;;;;23.60;46.00;;;;;;5057725;22;19943;-56
2023/07/08 12:42:31;;;;;;;;;;;23.60;46.00;;;;;;5036849;28;20019;-55
2023/07/08 12:44:57;;;;;;;;;;;23.60;45.90;;;;;;5036795;28;19921;-56
2023/07/08 12:47:24;;;;;;;;;;;23.60;46.10;;;;;;5037116;28;19920;-56
2023/07/08 12:49:53;;;;;;;;;;;23.60;46.00;;;;;;5036699;28;19964;-56
2023/07/08 12:52:21;;;;;;;;;;;23.60;45.90;;;;;;5053841;28;19925;-55
2023/07/08 12:54:48;;;;;;;;;;;23.60;45.70;;;;;;5054034;28;19992;-54
2023/07/08 12:57:16;;;;;;;;;;;23.60;45.80;;;;;;5036552;28;19921;-56
2023/07/08 12:59:43;;;;;;;;;;;23.60;45.90;;;;;;5036411;28;19931;-55
2023/07/08 13:02:11;;;;;;;;;;;23.60;45.90;;;;;;5035808;28;19921;-56
2023/07/08 13:04:38;;;;;;;;;;;23.60;45.80;;;;;;5036083;28;19924;-56
2023/07/08 13:07:05;;;;;;;;;;;23.70;45.80;;;;;;5036025;28;20409;-55
2023/07/08 13:09:34;;;;;;;;;;;23.70;45.80;;;;;;5036471;28;19942;-55
2023/07/08 13:12:02;;;;;;;;;;;23.70;45.70;;;;;;5035966;28;19947;-54
2023/07/08 13:14:31;;;;;;;;;;;23.70;45.80;;;;;;5053119;28;19924;-55
2023/07/08 13:16:57;;;;;;;;;;;23.70;45.70;;;;;;5035893;28;19955;-53
2023/07/08 13:19:24;;;;;;;;;;;23.70;45.60;;;;;;5036001;28;20019;-56
2023/07/08 13:21:51;;;;;;;;;;;23.70;45.70;;;;;;5035943;28;19978;-56
2023/07/08 13:24:19;;;;;;;;;;;23.70;45.70;;;;;;5035655;28;19927;-55
2023/07/08 13:26:46;;;;;;;;;;;23.70;45.50;;;;;;5035712;28;19927;-57
2023/07/08 13:29:14;;;;;;;;;;;23.70;45.50;;;;;;5035960;28;19931;-55
2023/07/08 13:31:45;;;;;;;;;;;23.70;45.50;;;;;;5035492;28;19931;-56
2023/07/08 13:34:16;;;;;;;;;;;23.70;45.50;;;;;;5056896;28;19920;-55
2023/07/08 13:36:44;;;;;;;;;;;23.70;45.30;;;;;;5057671;28;19921;-56
2023/07/08 13:39:16;;;;;;;;;;;23.70;45.10;;;;;;5038820;28;19928;-56
2023/07/08 13:41:43;;;;;;;;;;;23.70;45.10;;;;;;5057421;28;19920;-55
2023/07/08 13:44:09;;;;;;;;;;;23.70;45.20;;;;;;5039371;28;19928;-55
2023/07/08 13:46:37;;;;;;;;;;;23.70;45.10;;;;;;5056658;28;20034;-56
2023/07/08 13:49:11;;;;;;;;;;;23.80;45.00;;;;;;5038819;28;19932;-54
2023/07/08 13:51:37;;;;;;;;;;;23.80;44.90;;;;;;5038976;28;19966;-56
2023/07/08 13:54:09;;;;;;;;;;;23.80;45.00;;;;;;5039444;28;19924;-55
2023/07/08 13:56:36;;;;;;;;;;;23.80;44.90;;;;;;5039143;28;19920;-55
2023/07/08 13:59:04;;;;;;;;;;;23.80;44.90;;;;;;5039884;28;19921;-56
2023/07/08 14:01:31;;;;;;;;;;;23.80;44.80;;;;;;5039334;28;19921;-56
2023/07/08 14:04:02;;;;;;;;;;;23.80;44.80;;;;;;5038900;28;19921;-55
2023/07/08 14:06:32;;;;;;;;;;;23.80;44.90;;;;;;5038493;28;19940;-57
2023/07/08 14:08:59;;;;;;;;;;;23.80;44.80;;;;;;5038838;28;19920;-55
2023/07/08 14:11:26;;;;;;;;;;;23.80;44.80;;;;;;5056632;28;19928;-54
2023/07/08 14:13:53;;;;;;;;;;;23.80;44.70;;;;;;5039213;28;19971;-55
2023/07/08 14:16:22;;;;;;;;;;;23.80;44.70;;;;;;5056592;28;19925;-56
2023/07/08 14:18:49;;;;;;;;;;;23.80;44.70;;;;;;5038549;28;19921;-53
2023/07/08 14:21:16;;;;;;;;;;;23.80;44.60;;;;;;5039246;28;19960;-55